createdAt,value
2022-09-15T00:00:07.835Z,371.05
2022-09-15T00:02:35.257Z,425.20
2022-09-15T00:05:02.943Z,421.73
2022-09-15T00:07:31.262Z,435.73
2022-09-15T00:09:58.440Z,420.60
2022-09-15T00:12:25.977Z,413.63
2022-09-15T00:14:53.353Z,423.58
2022-09-15T00:17:20.724Z,405.88
2022-09-15T00:19:47.866Z,394.60
2022-09-15T00:22:15.374Z,407.88
2022-09-15T00:24:42.693Z,399.98
2022-09-15T00:27:09.811Z,393.80
2022-09-15T00:29:37.031Z,408.57
2022-09-15T00:32:04.544Z,395.13
2022-09-15T00:34:31.665Z,394.75
2022-09-15T00:36:58.827Z,402.60
2022-09-15T00:39:26.203Z,419.70
2022-09-15T00:41:54.328Z,424.52
2022-09-15T00:44:24.394Z,427.70
2022-09-15T00:47:15.343Z,438.63
2022-09-15T00:49:42.319Z,438.98
2022-09-15T00:52:25.370Z,430.70
2022-09-15T00:55:04.003Z,410.27
2022-09-15T00:57:42.370Z,458.65
2022-09-15T01:00:13.578Z,418.98
2022-09-15T01:02:43.134Z,445.73
2022-09-15T01:05:13.395Z,432.38
2022-09-15T01:07:40.490Z,440.27
2022-09-15T01:10:19.189Z,440.50
2022-09-15T01:12:46.157Z,429.67
2022-09-15T01:15:13.610Z,434.58
2022-09-15T01:17:40.881Z,462.35
2022-09-15T01:20:44.855Z,448.80
2022-09-15T01:23:44.710Z,439.27
2022-09-15T01:26:11.884Z,454.52
2022-09-15T01:29:06.211Z,468.70
2022-09-15T01:31:36.244Z,446.48
2022-09-15T01:34:06.510Z,461.00
2022-09-15T01:36:34.138Z,468.50
2022-09-15T01:39:19.003Z,449.98
2022-09-15T01:42:02.006Z,466.02
2022-09-15T01:44:38.180Z,463.87
2022-09-15T01:47:10.090Z,475.05
2022-09-15T01:50:01.407Z,477.25
2022-09-15T01:52:29.705Z,523.28
2022-09-15T01:55:00.235Z,556.42
2022-09-15T01:57:27.995Z,555.30
2022-09-15T01:59:55.934Z,568.83
2022-09-15T02:02:42.533Z,562.78
2022-09-15T02:05:20.607Z,578.67
2022-09-15T02:08:02.065Z,561.33
2022-09-15T02:10:41.041Z,557.90
2022-09-15T02:13:17.083Z,558.22
2022-09-15T02:15:52.226Z,571.27
2022-09-15T02:18:40.717Z,573.08
2022-09-15T02:21:23.989Z,552.85
2022-09-15T02:23:54.993Z,550.07
2022-09-15T02:26:24.432Z,558.85
2022-09-15T02:28:54.214Z,559.28
2022-09-15T02:31:23.420Z,576.80
2022-09-15T02:33:57.577Z,565.50
2022-09-15T02:36:25.987Z,591.83
2022-09-15T02:38:58.107Z,592.83
2022-09-15T02:41:25.261Z,578.77
2022-09-15T02:43:52.540Z,589.47
2022-09-15T02:46:21.491Z,565.42
2022-09-15T02:48:48.868Z,575.97
2022-09-15T02:51:17.307Z,567.53
2022-09-15T02:53:46.176Z,555.80
2022-09-15T02:56:13.629Z,488.10
2022-09-15T02:58:40.830Z,472.13
2022-09-15T03:01:11.083Z,497.33
2022-09-15T03:03:42.787Z,494.10
2022-09-15T03:06:16.749Z,496.20
2022-09-15T03:08:52.175Z,489.55
2022-09-15T03:11:20.827Z,499.60
2022-09-15T03:13:48.231Z,520.28
2022-09-15T03:16:16.632Z,508.90
2022-09-15T03:18:44.086Z,514.58
2022-09-15T03:21:13.516Z,496.03
2022-09-15T03:23:41.080Z,494.60
2022-09-15T03:26:09.432Z,512.40
2022-09-15T03:28:37.315Z,477.60
2022-09-15T03:31:04.825Z,491.90
2022-09-15T03:33:32.025Z,484.87
2022-09-15T03:35:59.115Z,496.48
2022-09-15T03:38:27.363Z,500.88
2022-09-15T03:41:13.081Z,499.60
2022-09-15T03:43:40.512Z,494.30
2022-09-15T03:46:09.955Z,531.15
2022-09-15T03:48:37.301Z,592.78
2022-09-15T03:51:05.611Z,595.67
2022-09-15T03:53:34.269Z,570.55
2022-09-15T03:56:10.118Z,595.88
2022-09-15T03:58:37.424Z,579.08
2022-09-15T04:01:05.906Z,593.90
2022-09-15T04:03:32.760Z,602.22
2022-09-15T04:05:59.957Z,629.50
2022-09-15T04:08:27.066Z,621.47
2022-09-15T04:10:54.997Z,615.70
2022-09-15T04:13:26.699Z,626.38
2022-09-15T04:16:02.922Z,621.35
2022-09-15T04:18:30.720Z,627.13
2022-09-15T04:21:01.938Z,615.97
2022-09-15T04:23:29.128Z,616.90
2022-09-15T04:25:58.134Z,647.42
2022-09-15T04:28:26.231Z,620.38
2022-09-15T04:30:54.551Z,617.95
2022-09-15T04:33:22.357Z,638.72
2022-09-15T04:35:49.547Z,641.85
2022-09-15T04:38:16.754Z,647.47
2022-09-15T04:40:43.982Z,621.08
2022-09-15T04:43:11.094Z,631.60
2022-09-15T04:45:38.279Z,625.40
2022-09-15T04:48:05.534Z,621.97
2022-09-15T04:50:33.767Z,628.25
2022-09-15T04:53:02.812Z,609.80
2022-09-15T04:55:32.231Z,619.00
2022-09-15T04:57:59.419Z,604.85
2022-09-15T05:00:27.558Z,608.90
2022-09-15T05:02:54.757Z,634.40
2022-09-15T05:05:22.189Z,615.00
2022-09-15T05:07:49.423Z,621.65
2022-09-15T05:10:16.603Z,607.70
2022-09-15T05:12:43.796Z,628.17
2022-09-15T05:15:11.261Z,635.35
2022-09-15T05:17:38.435Z,549.17
2022-09-15T05:20:05.911Z,522.80
2022-09-15T05:22:33.094Z,535.10
2022-09-15T05:25:00.211Z,496.15
2022-09-15T05:27:27.406Z,519.70
2022-09-15T05:30:16.189Z,551.45
2022-09-15T05:32:41.939Z,532.70
2022-09-15T05:35:09.122Z,527.53
2022-09-15T05:37:36.329Z,530.47
2022-09-15T05:40:08.287Z,504.70
2022-09-15T05:42:36.118Z,537.67
2022-09-15T05:45:03.309Z,523.63
2022-09-15T05:47:30.521Z,533.22
2022-09-15T05:49:57.824Z,526.80
2022-09-15T05:52:26.078Z,546.83
2022-09-15T05:54:58.322Z,546.53
2022-09-15T05:57:26.436Z,528.42
2022-09-15T05:59:53.626Z,544.00
2022-09-15T06:02:20.914Z,526.22
2022-09-15T06:04:50.236Z,561.33
2022-09-15T06:07:17.392Z,560.83
2022-09-15T06:09:45.137Z,538.95
2022-09-15T06:12:12.263Z,550.58
2022-09-15T06:14:39.505Z,524.42
2022-09-15T06:17:06.641Z,569.25
2022-09-15T06:19:33.884Z,575.90
2022-09-15T06:22:01.590Z,569.63
2022-09-15T06:24:28.923Z,578.57
2022-09-15T06:26:56.054Z,553.95
2022-09-15T06:29:23.190Z,577.58
2022-09-15T06:31:50.467Z,570.90
2022-09-15T06:34:17.978Z,582.72
2022-09-15T06:36:45.211Z,573.60
2022-09-15T06:39:12.375Z,584.33
2022-09-15T06:42:00.798Z,570.72
2022-09-15T06:44:29.031Z,557.05
2022-09-15T06:46:56.154Z,574.77
2022-09-15T06:49:25.194Z,549.83
2022-09-15T06:51:52.660Z,553.53
2022-09-15T06:54:19.894Z,548.25
2022-09-15T06:56:47.328Z,557.25
2022-09-15T06:59:16.007Z,549.78
2022-09-15T07:01:43.367Z,565.00
2022-09-15T07:04:10.933Z,558.38
2022-09-15T07:06:39.221Z,568.90
2022-09-15T07:09:07.248Z,573.67
2022-09-15T07:11:34.593Z,588.22
2022-09-15T07:14:01.818Z,570.33
2022-09-15T07:16:29.333Z,566.63
2022-09-15T07:18:57.534Z,582.30
2022-09-15T07:21:24.778Z,580.40
2022-09-15T07:23:53.336Z,601.33
2022-09-15T07:26:20.541Z,576.97
2022-09-15T07:28:51.516Z,590.55
2022-09-15T07:31:21.056Z,581.22
2022-09-15T07:33:48.466Z,618.55
2022-09-15T07:36:15.905Z,633.27
2022-09-15T07:38:46.720Z,631.45
2022-09-15T07:41:16.270Z,609.05
2022-09-15T07:43:47.740Z,640.67
2022-09-15T07:46:15.772Z,638.77
2022-09-15T07:48:45.442Z,637.90
2022-09-15T07:51:12.786Z,609.35
2022-09-15T07:53:40.097Z,603.42
2022-09-15T07:56:07.331Z,569.83
2022-09-15T07:58:35.091Z,570.33
2022-09-15T08:01:07.533Z,559.57
2022-09-15T08:03:35.780Z,580.17
2022-09-15T08:06:03.436Z,586.55
2022-09-15T08:08:31.086Z,603.80
2022-09-15T08:10:58.459Z,585.38
2022-09-15T08:13:25.914Z,558.88
2022-09-15T08:15:53.327Z,576.05
2022-09-15T08:18:20.601Z,587.72
2022-09-15T08:20:47.874Z,583.95
2022-09-15T08:23:15.251Z,535.20
2022-09-15T08:25:42.391Z,553.08
2022-09-15T08:28:09.840Z,576.42
2022-09-15T08:30:37.230Z,578.03
2022-09-15T08:33:04.687Z,594.10
2022-09-15T08:35:32.857Z,566.53
2022-09-15T08:37:59.995Z,561.28
2022-09-15T08:40:36.434Z,552.60
2022-09-15T08:43:09.792Z,579.15
2022-09-15T08:45:47.597Z,546.17
2022-09-15T08:48:15.893Z,562.00
2022-09-15T08:50:47.259Z,553.78
2022-09-15T08:53:31.227Z,565.63
2022-09-15T08:56:09.343Z,550.27
2022-09-15T08:58:37.683Z,585.97
2022-09-15T09:01:09.938Z,571.40
2022-09-15T09:03:40.175Z,581.60
2022-09-15T09:06:07.455Z,570.90
2022-09-15T09:09:08.847Z,569.35
2022-09-15T09:11:45.257Z,542.73
2022-09-15T09:14:21.740Z,569.50
2022-09-15T09:16:52.077Z,560.20
2022-09-15T09:19:28.022Z,563.78
2022-09-15T09:22:03.670Z,567.03
2022-09-15T09:24:57.360Z,568.35
2022-09-15T09:27:30.498Z,583.42
2022-09-15T09:30:13.015Z,649.42
2022-09-15T09:32:53.980Z,690.03
2022-09-15T09:35:36.041Z,698.92
2022-09-15T09:38:03.215Z,693.13
2022-09-15T09:40:32.712Z,801.88
2022-09-15T09:43:01.493Z,842.22
2022-09-15T09:45:28.679Z,727.40
2022-09-15T09:48:01.830Z,755.90
2022-09-15T09:50:33.447Z,785.53
2022-09-15T09:53:00.839Z,761.80
2022-09-15T09:55:28.806Z,743.03
2022-09-15T09:58:11.520Z,742.85
2022-09-15T10:00:42.404Z,748.28
2022-09-15T10:03:16.827Z,728.17
2022-09-15T10:05:44.418Z,746.67
2022-09-15T10:08:19.291Z,769.72
2022-09-15T10:10:54.535Z,756.47
2022-09-15T10:13:22.313Z,740.90
2022-09-15T10:16:00.295Z,736.28
2022-09-15T10:18:31.713Z,732.73
2022-09-15T10:20:59.555Z,734.90
2022-09-15T10:23:29.416Z,759.83
2022-09-15T10:26:00.143Z,719.90
2022-09-15T10:28:28.208Z,737.27
2022-09-15T10:31:07.228Z,727.13
2022-09-15T10:33:35.869Z,736.65
2022-09-15T10:36:13.293Z,735.35
2022-09-15T10:38:45.470Z,742.35
2022-09-15T10:41:26.401Z,719.70
2022-09-15T10:44:02.854Z,729.28
2022-09-15T10:46:48.510Z,749.30
2022-09-15T10:49:18.723Z,754.65
2022-09-15T10:51:46.404Z,738.00
2022-09-15T10:54:19.647Z,775.97
2022-09-15T10:56:55.095Z,757.83
2022-09-15T10:59:22.374Z,780.85
2022-09-15T11:02:35.933Z,782.80
2022-09-15T11:05:18.951Z,782.33
2022-09-15T11:08:20.881Z,800.47
2022-09-15T11:10:52.063Z,763.17
2022-09-15T11:13:25.727Z,690.55
2022-09-15T11:15:56.587Z,708.67
2022-09-15T11:18:39.190Z,693.70
2022-09-15T11:21:15.339Z,694.42
2022-09-15T11:23:42.608Z,700.97
2022-09-15T11:26:13.542Z,700.60
2022-09-15T11:28:44.279Z,701.92
2022-09-15T11:31:29.169Z,682.83
2022-09-15T11:33:59.263Z,716.95
2022-09-15T11:36:32.936Z,695.47
2022-09-15T11:39:13.433Z,719.65
2022-09-15T11:41:44.304Z,738.30
2022-09-15T11:44:39.044Z,719.58
2022-09-15T11:47:06.469Z,804.00
2022-09-15T11:49:33.826Z,821.78
2022-09-15T11:52:11.929Z,859.10
2022-09-15T11:54:44.178Z,796.22
2022-09-15T11:57:20.525Z,784.45
2022-09-15T11:59:52.614Z,793.20
2022-09-15T12:02:25.832Z,776.72
2022-09-15T12:05:12.616Z,812.28
2022-09-15T12:07:50.172Z,842.63
2022-09-15T12:10:33.870Z,901.65
2022-09-15T12:13:01.741Z,849.53
2022-09-15T12:15:29.430Z,853.08
2022-09-15T12:18:34.530Z,882.17
2022-09-15T12:21:07.625Z,894.83
2022-09-15T12:23:44.266Z,854.83
2022-09-15T12:26:20.079Z,849.93
2022-09-15T12:28:47.271Z,799.40
2022-09-15T12:31:23.552Z,809.03
2022-09-15T12:34:01.778Z,805.28
2022-09-15T12:36:36.609Z,757.72
2022-09-15T12:39:19.395Z,777.92
2022-09-15T12:41:54.083Z,804.30
2022-09-15T12:44:27.673Z,777.42
2022-09-15T12:46:56.030Z,999.90
2022-09-15T12:49:27.467Z,915.88
2022-09-15T12:51:57.122Z,840.92
2022-09-15T12:54:27.160Z,868.50
2022-09-15T12:56:55.682Z,861.58
2022-09-15T12:59:25.809Z,859.15
2022-09-15T13:01:54.288Z,884.35
2022-09-15T13:04:54.755Z,876.47
2022-09-15T13:07:30.878Z,846.47
2022-09-15T13:10:27.715Z,844.50
2022-09-15T13:13:05.596Z,837.60
2022-09-15T13:15:34.288Z,831.80
2022-09-15T13:18:05.531Z,817.95
2022-09-15T13:20:34.973Z,824.20
2022-09-15T13:23:02.443Z,793.88
2022-09-15T13:25:30.586Z,763.92
2022-09-15T13:28:02.271Z,806.05
2022-09-15T13:30:33.699Z,787.63
2022-09-15T13:33:07.983Z,822.50
2022-09-15T13:35:44.157Z,795.43
2022-09-15T13:38:42.693Z,816.20
2022-09-15T13:41:25.162Z,800.88
2022-09-15T13:44:04.359Z,762.13
2022-09-15T13:47:00.488Z,781.38
2022-09-15T13:49:32.778Z,818.97
2022-09-15T13:52:08.898Z,805.35
2022-09-15T13:54:36.202Z,799.08
2022-09-15T13:57:03.577Z,782.70
2022-09-15T13:59:32.841Z,797.08
2022-09-15T14:02:00.709Z,827.63
2022-09-15T14:04:31.880Z,778.05
2022-09-15T14:07:01.427Z,814.15
2022-09-15T14:09:31.117Z,817.27
2022-09-15T14:12:03.372Z,794.45
2022-09-15T14:14:36.385Z,799.90
2022-09-15T14:17:04.111Z,816.37
2022-09-15T14:19:36.233Z,781.58
2022-09-15T14:22:17.969Z,807.97
2022-09-15T14:24:45.173Z,788.00
2022-09-15T14:27:12.975Z,783.35
2022-09-15T14:29:41.982Z,799.00
2022-09-15T14:32:17.548Z,778.67
2022-09-15T14:34:45.476Z,733.70
2022-09-15T14:37:12.619Z,742.42
2022-09-15T14:39:40.352Z,726.87
2022-09-15T14:42:22.618Z,741.00
2022-09-15T14:47:43.266Z,749.92
2022-09-15T14:50:19.297Z,724.25
2022-09-15T14:52:46.547Z,743.28
2022-09-15T14:55:15.686Z,753.38
2022-09-15T14:57:45.004Z,772.73
2022-09-15T15:00:17.487Z,760.75
2022-09-15T15:02:48.222Z,762.67
2022-09-15T15:05:18.558Z,734.53
2022-09-15T15:07:46.295Z,756.53
2022-09-15T15:10:13.458Z,738.58
2022-09-15T15:12:45.503Z,768.40
2022-09-15T15:15:16.042Z,755.70
2022-09-15T15:17:49.613Z,744.38
2022-09-15T15:20:22.764Z,736.45
2022-09-15T15:23:11.597Z,713.90
2022-09-15T15:25:39.169Z,691.75
2022-09-15T15:28:06.933Z,711.53
2022-09-15T15:30:34.143Z,724.40
2022-09-15T15:33:01.234Z,723.92
2022-09-15T15:35:28.555Z,717.90
2022-09-15T15:38:03.502Z,749.25
2022-09-15T15:40:31.031Z,695.57
2022-09-15T15:43:05.913Z,726.93
2022-09-15T15:45:35.298Z,737.35
2022-09-15T15:48:03.775Z,758.03
2022-09-15T15:50:32.514Z,739.77
2022-09-15T15:53:00.789Z,766.78
2022-09-15T15:55:41.492Z,726.55
2022-09-15T15:58:13.454Z,753.43
2022-09-15T16:00:54.649Z,751.53
2022-09-15T16:03:22.054Z,739.87
2022-09-15T16:05:51.419Z,743.45
2022-09-15T16:08:26.077Z,751.33
2022-09-15T16:10:53.970Z,758.88
2022-09-15T16:13:21.746Z,785.20
2022-09-15T16:15:49.285Z,750.15
2022-09-15T16:18:16.785Z,779.08
2022-09-15T16:20:44.191Z,771.27
2022-09-15T16:23:15.571Z,792.70
2022-09-15T16:25:47.362Z,756.70
2022-09-15T16:28:14.841Z,781.33
2022-09-15T16:30:41.991Z,778.17
2022-09-15T16:33:13.017Z,793.45
2022-09-15T16:35:43.150Z,787.70
2022-09-15T16:38:10.803Z,775.00
2022-09-15T16:40:38.223Z,799.05
2022-09-15T16:43:09.808Z,797.85
2022-09-15T16:45:40.624Z,816.03
2022-09-15T16:48:09.122Z,793.13
2022-09-15T16:50:39.867Z,780.45
2022-09-15T16:53:21.328Z,786.08
2022-09-15T16:55:52.374Z,786.47
2022-09-15T16:58:22.073Z,803.85
2022-09-15T17:00:51.520Z,796.45
2022-09-15T17:03:19.837Z,797.10
2022-09-15T17:05:49.759Z,779.92
2022-09-15T17:08:19.122Z,760.95
2022-09-15T17:10:46.655Z,800.70
2022-09-15T17:13:19.843Z,810.43
2022-09-15T17:15:47.296Z,779.53
2022-09-15T17:18:15.541Z,780.63
2022-09-15T17:20:43.988Z,793.33
2022-09-15T17:23:17.323Z,772.57
2022-09-15T17:25:49.001Z,783.47
2022-09-15T17:28:16.164Z,788.97
2022-09-15T17:30:43.631Z,696.08
2022-09-15T17:33:15.054Z,705.47
2022-09-15T17:35:43.182Z,675.22
2022-09-15T17:38:10.320Z,674.17
2022-09-15T17:40:37.648Z,650.38
2022-09-15T17:43:05.153Z,648.28
2022-09-15T17:45:36.506Z,638.92
2022-09-15T17:48:05.139Z,649.43
2022-09-15T17:50:33.875Z,635.95
2022-09-15T17:53:01.282Z,607.53
2022-09-15T17:55:29.878Z,616.95
2022-09-15T17:57:59.821Z,634.00
2022-09-15T18:00:28.733Z,651.65
2022-09-15T18:02:57.747Z,648.87
2022-09-15T18:05:29.744Z,630.95
2022-09-15T18:07:57.776Z,655.07
2022-09-15T18:10:25.530Z,677.95
2022-09-15T18:12:55.562Z,699.08
2022-09-15T18:15:26.014Z,692.08
2022-09-15T18:17:57.526Z,717.13
2022-09-15T18:20:27.718Z,687.07
2022-09-15T18:22:55.495Z,697.92
2022-09-15T18:25:31.622Z,682.00
2022-09-15T18:27:59.005Z,668.53
2022-09-15T18:30:28.403Z,691.95
2022-09-15T18:32:55.624Z,677.60
2022-09-15T18:35:23.420Z,701.67
2022-09-15T18:37:55.345Z,697.13
2022-09-15T18:40:22.966Z,683.38
2022-09-15T18:42:50.274Z,698.05
2022-09-15T18:45:18.277Z,714.73
2022-09-15T18:47:49.100Z,739.58
2022-09-15T18:50:17.098Z,715.30
2022-09-15T18:52:44.320Z,736.00
2022-09-15T18:55:15.025Z,714.60
2022-09-15T18:57:42.745Z,736.20
2022-09-15T19:00:13.459Z,691.88
2022-09-15T19:02:40.964Z,715.08
2022-09-15T19:05:11.330Z,695.08
2022-09-15T19:07:38.992Z,706.42
2022-09-15T19:10:07.561Z,724.03
2022-09-15T19:12:38.022Z,717.70
2022-09-15T19:15:10.787Z,720.85
2022-09-15T19:17:39.355Z,736.03
2022-09-15T19:20:07.987Z,735.75
2022-09-15T19:22:35.381Z,723.10
2022-09-15T19:25:02.711Z,740.05
2022-09-15T19:27:29.935Z,739.08
2022-09-15T19:29:57.166Z,729.17
2022-09-15T19:32:24.495Z,724.03
2022-09-15T19:34:51.704Z,747.72
2022-09-15T19:37:19.989Z,720.23
2022-09-15T19:39:47.700Z,742.90
2022-09-15T19:44:43.979Z,738.65
2022-09-15T19:47:11.206Z,677.30
2022-09-15T19:49:38.550Z,745.10
2022-09-15T19:52:07.226Z,712.20
2022-09-15T19:54:34.923Z,818.42
2022-09-15T19:57:02.367Z,809.80
2022-09-15T19:59:31.702Z,811.10
2022-09-15T20:01:59.980Z,827.58
2022-09-15T20:04:27.522Z,820.85
2022-09-15T20:06:55.806Z,826.85
2022-09-15T20:09:23.240Z,808.43
2022-09-15T20:11:50.465Z,805.22
2022-09-15T20:14:17.719Z,824.47
2022-09-15T20:16:44.983Z,823.40
2022-09-15T20:19:12.235Z,821.80
2022-09-15T20:21:55.559Z,769.40
2022-09-15T20:24:23.698Z,770.83
2022-09-15T20:26:50.997Z,804.27
2022-09-15T20:29:18.409Z,783.47
2022-09-15T20:31:45.546Z,791.13
2022-09-15T20:34:12.772Z,788.90
2022-09-15T20:36:40.273Z,792.15
2022-09-15T20:39:10.781Z,785.10
2022-09-15T20:41:38.099Z,786.28
2022-09-15T20:44:09.134Z,794.78
2022-09-15T20:46:36.379Z,761.13
2022-09-15T20:49:03.738Z,787.58
2022-09-15T20:51:32.378Z,783.00
2022-09-15T20:54:00.487Z,796.17
2022-09-15T20:56:29.040Z,751.22
2022-09-15T20:58:58.385Z,760.40
2022-09-15T21:01:27.339Z,784.03
2022-09-15T21:03:56.255Z,785.30
2022-09-15T21:06:24.948Z,778.43
2022-09-15T21:08:52.990Z,783.92
2022-09-15T21:11:21.251Z,788.60
2022-09-15T21:13:49.202Z,775.75
2022-09-15T21:16:18.452Z,797.10
2022-09-15T21:18:46.282Z,785.90
2022-09-15T21:21:24.506Z,782.22
2022-09-15T21:23:56.484Z,811.38
2022-09-15T21:26:25.180Z,796.50
2022-09-15T21:28:52.838Z,790.50
2022-09-15T21:31:22.166Z,795.65
2022-09-15T21:33:49.519Z,803.80
2022-09-15T21:36:22.191Z,803.78
2022-09-15T21:38:51.098Z,769.75
2022-09-15T21:41:23.411Z,812.90
2022-09-15T21:43:58.870Z,806.70
2022-09-15T21:46:28.109Z,805.80
2022-09-15T21:48:56.405Z,806.33
2022-09-15T21:51:25.148Z,798.65
2022-09-15T21:53:56.570Z,804.17
2022-09-15T21:56:24.667Z,796.35
2022-09-15T21:58:51.943Z,787.17
2022-09-15T22:01:25.630Z,820.90
2022-09-15T22:04:00.759Z,803.90
2022-09-15T22:06:32.474Z,831.20
2022-09-15T22:09:03.517Z,848.60
2022-09-15T22:11:30.949Z,837.92
2022-09-15T22:13:58.531Z,841.53
2022-09-15T22:16:26.192Z,847.38
2022-09-15T22:18:53.868Z,853.78
2022-09-15T22:21:23.197Z,852.60
2022-09-15T22:23:51.610Z,864.25
2022-09-15T22:26:21.046Z,860.25
2022-09-15T22:28:48.216Z,879.92
2022-09-15T22:31:17.374Z,883.10
2022-09-15T22:33:44.985Z,892.03
2022-09-15T22:36:17.623Z,915.30
2022-09-15T22:38:44.810Z,924.85
2022-09-15T22:41:13.347Z,927.00
2022-09-15T22:43:41.650Z,879.08
2022-09-15T22:46:10.142Z,924.60
2022-09-15T22:48:42.451Z,901.88
2022-09-15T22:51:11.089Z,912.17
2022-09-15T22:53:38.564Z,999.90
2022-09-15T22:56:11.447Z,999.90
2022-09-15T22:58:38.624Z,999.90
2022-09-15T23:01:09.516Z,999.90
2022-09-15T23:03:38.262Z,999.90
2022-09-15T23:06:05.884Z,999.90
2022-09-15T23:08:33.215Z,999.90
2022-09-15T23:11:05.942Z,999.90
2022-09-15T23:13:33.571Z,999.90
2022-09-15T23:16:00.982Z,999.90
2022-09-15T23:18:29.059Z,999.90
2022-09-15T23:21:08.388Z,999.90
2022-09-15T23:23:37.389Z,999.90
2022-09-15T23:26:06.731Z,999.90
2022-09-15T23:28:34.260Z,999.90
2022-09-15T23:31:01.480Z,999.90
2022-09-15T23:33:29.856Z,983.78
2022-09-15T23:35:59.186Z,999.85
2022-09-15T23:38:26.294Z,999.90
2022-09-15T23:40:53.459Z,976.42
2022-09-15T23:43:20.598Z,976.47
2022-09-15T23:45:48.140Z,981.63
2022-09-15T23:48:15.466Z,978.08
2022-09-15T23:50:43.932Z,983.30
2022-09-15T23:53:11.330Z,971.67
2022-09-15T23:55:39.948Z,999.90
2022-09-15T23:58:08.169Z,999.90
